createdAt,value
2018-11-01T00:02:15.560Z,44.23
2018-11-01T00:04:46.192Z,45.50
2018-11-01T00:07:16.669Z,46.00
2018-11-01T00:09:47.226Z,43.60
2018-11-01T00:12:18.922Z,40.77
2018-11-01T00:14:50.228Z,42.87
2018-11-01T00:17:20.693Z,42.33
2018-11-01T00:19:51.215Z,42.73
2018-11-01T00:22:21.729Z,41.63
2018-11-01T00:24:52.454Z,41.57
2018-11-01T00:27:22.902Z,39.60
2018-11-01T00:29:53.589Z,40.33
2018-11-01T00:32:24.341Z,46.43
2018-11-01T00:34:54.822Z,46.83
2018-11-01T00:37:25.593Z,45.37
2018-11-01T00:39:56.131Z,44.00
2018-11-01T00:42:26.637Z,42.47
2018-11-01T00:44:57.099Z,42.63
2018-11-01T00:47:27.582Z,49.53
2018-11-01T00:49:58.139Z,43.70
2018-11-01T00:52:29.007Z,48.77
2018-11-01T00:55:00.497Z,51.20
2018-11-01T00:57:31.056Z,57.97
2018-11-01T01:00:01.607Z,47.63
2018-11-01T01:02:32.141Z,45.50
2018-11-01T01:05:02.938Z,49.10
2018-11-01T01:07:33.500Z,44.10
2018-11-01T01:10:04.373Z,45.87
2018-11-01T01:12:34.974Z,44.20
2018-11-01T01:15:05.957Z,43.20
2018-11-01T01:17:36.468Z,43.67
2018-11-01T01:20:09.815Z,42.60
2018-11-01T01:22:40.801Z,41.20
2018-11-01T01:25:13.018Z,42.63
2018-11-01T01:27:43.646Z,48.13
2018-11-01T01:30:17.230Z,45.17
2018-11-01T01:32:48.130Z,43.57
2018-11-01T01:35:18.620Z,43.00
2018-11-01T01:37:49.111Z,43.10
2018-11-01T01:40:19.594Z,40.07
2018-11-01T01:42:50.040Z,39.90
2018-11-01T01:45:20.984Z,41.00
2018-11-01T01:47:51.464Z,39.80
2018-11-01T01:50:22.182Z,39.33
2018-11-01T01:52:52.876Z,39.57
2018-11-01T01:55:23.474Z,42.27
2018-11-01T01:57:54.102Z,40.80
2018-11-01T02:00:24.631Z,39.47
2018-11-01T02:02:55.104Z,39.43
2018-11-01T02:05:25.742Z,40.13
2018-11-01T02:07:56.180Z,38.33
2018-11-01T02:10:26.727Z,38.87
2018-11-01T02:12:57.535Z,37.23
2018-11-01T02:15:28.089Z,40.27
2018-11-01T02:17:58.667Z,39.40
2018-11-01T02:20:29.222Z,36.70
2018-11-01T02:22:59.757Z,35.10
2018-11-01T02:25:30.246Z,34.87
2018-11-01T02:28:05.559Z,34.27
2018-11-01T02:30:36.037Z,31.53
2018-11-01T02:33:06.713Z,32.07
2018-11-01T02:35:38.226Z,31.40
2018-11-01T02:38:08.807Z,32.17
2018-11-01T02:40:39.405Z,30.97
2018-11-01T02:43:09.894Z,32.73
2018-11-01T02:45:40.437Z,32.53
2018-11-01T02:48:10.841Z,32.97
2018-11-01T02:50:41.297Z,32.83
2018-11-01T02:53:11.797Z,34.30
2018-11-01T02:55:42.265Z,33.97
2018-11-01T02:58:12.719Z,32.90
2018-11-01T03:00:43.379Z,33.80
2018-11-01T03:03:13.968Z,34.67
2018-11-01T03:05:44.497Z,34.80
2018-11-01T03:08:16.120Z,36.43
2018-11-01T03:10:46.811Z,34.10
2018-11-01T03:13:17.591Z,36.70
2018-11-01T03:15:48.691Z,34.70
2018-11-01T03:18:20.327Z,34.17
2018-11-01T03:20:50.932Z,34.50
2018-11-01T03:23:22.004Z,34.50
2018-11-01T03:25:52.518Z,32.57
2018-11-01T03:28:22.963Z,34.43
2018-11-01T03:30:53.662Z,34.53
2018-11-01T03:33:24.696Z,35.70
2018-11-01T03:35:55.305Z,35.67
2018-11-01T03:38:25.923Z,34.33
2018-11-01T03:40:56.513Z,35.97
2018-11-01T03:43:27.014Z,34.57
2018-11-01T03:45:57.548Z,34.60
2018-11-01T03:48:28.077Z,33.97
2018-11-01T03:50:58.907Z,35.57
2018-11-01T03:53:29.857Z,35.73
2018-11-01T03:56:00.345Z,36.67
2018-11-01T03:58:30.811Z,38.53
2018-11-01T04:01:01.302Z,35.53
2018-11-01T04:03:31.949Z,36.47
2018-11-01T04:06:02.517Z,37.20
2018-11-01T04:08:33.084Z,38.87
2018-11-01T04:11:06.469Z,35.93
2018-11-01T04:13:37.378Z,40.90
2018-11-01T04:16:08.139Z,38.77
2018-11-01T04:18:38.723Z,40.13
2018-11-01T04:21:09.337Z,38.27
2018-11-01T04:23:39.973Z,37.10
2018-11-01T04:26:10.493Z,37.57
2018-11-01T04:28:40.920Z,36.53
2018-11-01T04:31:11.374Z,37.37
2018-11-01T04:33:43.346Z,35.90
2018-11-01T04:36:13.833Z,37.53
2018-11-01T04:38:44.297Z,36.53
2018-11-01T04:41:14.787Z,38.63
2018-11-01T04:43:45.241Z,37.57
2018-11-01T04:46:15.753Z,38.60
2018-11-01T04:48:46.291Z,39.13
2018-11-01T04:51:16.858Z,37.73
2018-11-01T04:53:47.481Z,38.07
2018-11-01T04:56:17.988Z,37.30
2018-11-01T04:58:48.425Z,36.30
2018-11-01T05:01:21.891Z,34.10
2018-11-01T05:03:55.092Z,39.17
2018-11-01T05:06:26.415Z,38.67
2018-11-01T05:08:56.918Z,39.33
2018-11-01T05:11:27.421Z,38.60
2018-11-01T05:13:58.193Z,41.03
2018-11-01T05:16:28.774Z,46.43
2018-11-01T05:18:59.277Z,44.50
2018-11-01T05:21:29.885Z,44.60
2018-11-01T05:24:02.293Z,46.07
2018-11-01T05:26:34.259Z,46.67
2018-11-01T05:29:04.865Z,45.23
2018-11-01T05:31:35.418Z,45.93
2018-11-01T05:34:06.307Z,42.27
2018-11-01T05:36:36.811Z,43.83
2018-11-01T05:39:10.338Z,42.70
2018-11-01T05:41:40.898Z,45.47
2018-11-01T05:44:11.296Z,44.87
2018-11-01T05:46:41.898Z,46.13
2018-11-01T05:49:12.415Z,46.33
2018-11-01T05:51:42.917Z,44.27
2018-11-01T05:54:14.153Z,42.40
2018-11-01T05:56:44.695Z,46.23
2018-11-01T05:59:15.464Z,44.70
2018-11-01T06:01:51.941Z,47.03
2018-11-01T06:04:22.481Z,47.47
2018-11-01T06:06:52.972Z,47.10
2018-11-01T06:09:28.198Z,47.80
2018-11-01T06:11:58.686Z,49.07
2018-11-01T06:14:29.392Z,48.23
2018-11-01T06:17:00.417Z,50.33
2018-11-01T06:19:31.284Z,50.33
2018-11-01T06:22:02.241Z,43.83
2018-11-01T06:24:32.909Z,47.13
2018-11-01T06:27:03.437Z,48.60
2018-11-01T06:29:34.087Z,46.97
2018-11-01T06:32:04.906Z,45.17
2018-11-01T06:34:40.067Z,43.03
2018-11-01T06:37:10.521Z,43.53
2018-11-01T06:39:41.089Z,41.80
2018-11-01T06:42:11.656Z,42.37
2018-11-01T06:44:42.097Z,40.77
2018-11-01T06:47:13.089Z,37.93
2018-11-01T06:49:43.587Z,36.47
2018-11-01T06:52:13.955Z,36.27
2018-11-01T06:54:44.914Z,38.03
2018-11-01T06:57:15.611Z,31.30
2018-11-01T06:59:46.094Z,34.40
2018-11-01T07:02:16.697Z,37.47
2018-11-01T07:04:47.202Z,36.17
2018-11-01T07:07:17.620Z,31.90
2018-11-01T07:09:48.992Z,38.67
2018-11-01T07:12:19.499Z,39.03
2018-11-01T07:14:50.335Z,33.83
2018-11-01T07:17:21.019Z,32.93
2018-11-01T07:19:51.435Z,35.77
2018-11-01T07:22:22.282Z,37.93
2018-11-01T07:24:52.763Z,35.63
2018-11-01T07:27:23.209Z,36.00
2018-11-01T07:34:54.931Z,39.27
2018-11-01T07:37:25.430Z,35.30
2018-11-01T07:39:55.942Z,34.93
2018-11-01T07:42:26.969Z,38.63
2018-11-01T07:44:57.466Z,33.67
2018-11-01T07:47:27.982Z,37.30
2018-11-01T07:49:58.557Z,34.40
2018-11-01T07:52:29.103Z,36.50
2018-11-01T07:54:59.631Z,33.93
2018-11-01T07:57:30.086Z,34.90
2018-11-01T08:00:00.674Z,34.83
2018-11-01T08:02:31.218Z,34.83
2018-11-01T08:05:02.003Z,34.33
2018-11-01T08:07:33.087Z,33.80
2018-11-01T08:10:03.546Z,36.67
2018-11-01T08:12:34.302Z,37.93
2018-11-01T08:15:05.799Z,38.07
2018-11-01T08:17:36.232Z,38.97
2018-11-01T08:20:08.143Z,38.43
2018-11-01T08:22:38.554Z,35.90
2018-11-01T08:25:09.546Z,37.50
2018-11-01T08:27:40.663Z,36.23
2018-11-01T08:30:13.397Z,36.43
2018-11-01T08:32:43.892Z,32.53
2018-11-01T08:35:14.519Z,37.10
2018-11-01T08:37:45.667Z,31.50
2018-11-01T08:40:16.295Z,34.47
2018-11-01T08:42:46.813Z,33.33
2018-11-01T08:45:17.378Z,34.27
2018-11-01T08:47:48.031Z,33.97
2018-11-01T08:50:18.598Z,33.60
2018-11-01T08:52:49.098Z,32.57
2018-11-01T08:55:19.563Z,30.23
2018-11-01T08:57:50.128Z,32.80
2018-11-01T09:03:00.928Z,33.03
2018-11-01T09:05:31.412Z,31.50
2018-11-01T09:08:02.037Z,30.23
2018-11-01T09:10:32.549Z,32.33
2018-11-01T09:13:03.143Z,32.10
2018-11-01T09:15:33.815Z,31.57
2018-11-01T09:18:04.348Z,35.80
2018-11-01T09:20:35.228Z,29.83
2018-11-01T09:23:06.026Z,31.70
2018-11-01T09:28:15.614Z,29.53
2018-11-01T09:30:46.114Z,35.77
2018-11-01T09:35:55.614Z,36.40
2018-11-01T09:38:26.159Z,33.60
2018-11-01T09:40:56.916Z,34.57
2018-11-01T09:43:27.385Z,37.30
2018-11-01T09:48:37.458Z,36.00
2018-11-01T09:53:48.374Z,31.43
2018-11-01T09:56:18.958Z,41.87
2018-11-01T09:58:49.482Z,37.73
2018-11-01T10:01:20.047Z,38.43
2018-11-01T10:03:50.598Z,38.97
2018-11-01T10:06:21.071Z,39.27
2018-11-01T10:08:51.725Z,38.93
2018-11-01T10:11:23.502Z,40.77
2018-11-01T10:13:54.100Z,40.77
2018-11-01T10:16:24.774Z,40.03
2018-11-01T10:18:55.195Z,38.43
2018-11-01T10:21:25.785Z,35.80
2018-11-01T10:23:56.366Z,41.70
2018-11-01T10:26:26.844Z,46.40
2018-11-01T10:28:57.411Z,47.00
2018-11-01T10:31:27.942Z,45.83
2018-11-01T10:33:58.621Z,47.17
2018-11-01T10:36:29.182Z,49.73
2018-11-01T10:39:00.710Z,52.40
2018-11-01T10:41:31.283Z,46.30
2018-11-01T10:44:01.743Z,49.00
2018-11-01T10:46:32.347Z,49.43
2018-11-01T10:49:02.908Z,46.03
2018-11-01T10:51:33.678Z,48.63
2018-11-01T10:54:04.405Z,45.27
2018-11-01T10:56:34.873Z,46.40
2018-11-01T10:59:05.601Z,47.23
2018-11-01T11:01:38.716Z,43.83
2018-11-01T11:04:09.301Z,43.70
2018-11-01T11:06:39.941Z,37.93
2018-11-01T11:09:10.593Z,40.97
2018-11-01T11:11:41.237Z,40.67
2018-11-01T11:14:11.822Z,40.37
2018-11-01T11:16:43.037Z,39.93
2018-11-01T11:19:13.708Z,38.97
2018-11-01T11:24:23.455Z,37.00
2018-11-01T11:26:54.012Z,39.43
2018-11-01T11:29:24.692Z,41.33
2018-11-01T11:31:55.117Z,40.13
2018-11-01T11:34:25.825Z,37.40
2018-11-01T11:36:56.420Z,38.43
2018-11-01T11:39:27.580Z,32.93
2018-11-01T11:41:58.346Z,35.50
2018-11-01T11:44:29.044Z,37.03
2018-11-01T11:46:59.587Z,37.70
2018-11-01T11:49:30.092Z,35.10
2018-11-01T11:52:00.612Z,34.30
2018-11-01T11:54:31.138Z,33.77
2018-11-01T11:57:01.758Z,34.57
2018-11-01T11:59:33.308Z,36.07
2018-11-01T12:02:03.834Z,36.53
2018-11-01T12:04:34.289Z,33.37
2018-11-01T12:07:04.952Z,34.33
2018-11-01T12:09:35.471Z,31.80
2018-11-01T12:12:05.957Z,32.27
2018-11-01T12:14:36.390Z,34.07
2018-11-01T12:17:07.165Z,34.10
2018-11-01T12:19:37.751Z,30.70
2018-11-01T12:22:08.520Z,27.40
2018-11-01T12:24:39.069Z,36.50
2018-11-01T12:27:09.643Z,32.40
2018-11-01T12:32:20.439Z,37.27
2018-11-01T12:34:51.027Z,38.23
2018-11-01T12:37:21.509Z,32.67
2018-11-01T12:42:32.776Z,35.90
2018-11-01T12:45:03.321Z,35.63
2018-11-01T12:47:33.775Z,32.00
2018-11-01T12:50:04.441Z,31.17
2018-11-01T12:52:34.988Z,40.87
2018-11-01T12:55:06.002Z,36.00
2018-11-01T12:57:36.762Z,38.50
2018-11-01T13:00:09.020Z,39.47
2018-11-01T13:02:39.589Z,33.53
2018-11-01T13:05:09.578Z,39.60
2018-11-01T13:07:40.131Z,41.03
2018-11-01T13:10:10.758Z,39.37
2018-11-01T13:12:41.250Z,41.47
2018-11-01T13:15:12.975Z,35.03
2018-11-01T13:17:43.564Z,36.80
2018-11-01T13:20:14.193Z,36.43
2018-11-01T13:22:44.747Z,34.43
2018-11-01T13:25:15.276Z,35.57
2018-11-01T13:27:45.786Z,34.50
2018-11-01T13:30:16.723Z,37.07
2018-11-01T13:35:28.321Z,36.77
2018-11-01T13:37:58.721Z,34.17
2018-11-01T13:40:29.608Z,36.93
2018-11-01T13:43:00.094Z,38.00
2018-11-01T13:45:30.627Z,39.07
2018-11-01T13:48:01.308Z,38.83
2018-11-01T13:50:31.846Z,39.47
2018-11-01T13:53:02.648Z,39.00
2018-11-01T13:55:33.098Z,40.50
2018-11-01T13:58:03.598Z,39.30
2018-11-01T14:00:34.699Z,42.93
2018-11-01T14:03:05.193Z,41.23
2018-11-01T14:05:35.747Z,40.77
2018-11-01T14:08:07.056Z,43.50
2018-11-01T14:13:39.711Z,43.30
2018-11-01T14:16:10.116Z,41.33
2018-11-01T14:18:40.616Z,44.93
2018-11-01T14:21:11.124Z,43.87
2018-11-01T14:23:41.698Z,48.07
2018-11-01T14:26:12.509Z,45.23
2018-11-01T14:28:43.129Z,42.80
2018-11-01T14:31:13.788Z,43.10
2018-11-01T14:33:44.172Z,43.37
2018-11-01T14:36:14.568Z,44.10
2018-11-01T14:38:44.918Z,42.80
2018-11-01T14:41:15.365Z,45.27
2018-11-01T14:43:45.727Z,43.47
2018-11-01T14:46:16.143Z,45.80
2018-11-01T14:48:46.580Z,43.73
2018-11-01T14:51:17.128Z,44.90
2018-11-01T14:53:48.527Z,46.77
2018-11-01T14:56:20.198Z,45.17
2018-11-01T14:58:50.615Z,47.20
2018-11-01T15:01:20.772Z,47.97
2018-11-01T15:03:51.081Z,44.70
2018-11-01T15:06:21.501Z,46.27
2018-11-01T15:11:30.986Z,59.97
2018-11-01T15:14:01.465Z,51.57
2018-11-01T15:16:31.865Z,44.67
2018-11-01T15:19:02.257Z,43.97
2018-11-01T15:21:32.630Z,45.10
2018-11-01T15:24:03.159Z,43.80
2018-11-01T15:26:33.661Z,41.33
2018-11-01T15:29:04.147Z,40.87
2018-11-01T15:31:34.505Z,44.50
2018-11-01T15:36:45.007Z,44.17
2018-11-01T15:39:15.372Z,43.90
2018-11-01T15:41:46.056Z,44.10
2018-11-01T15:44:16.624Z,44.83
2018-11-01T15:46:47.152Z,42.60
2018-11-01T15:49:17.582Z,43.10
2018-11-01T15:51:47.971Z,40.10
2018-11-01T15:54:18.538Z,39.77
2018-11-01T15:56:49.014Z,43.57
2018-11-01T15:59:19.432Z,41.43
2018-11-01T16:01:50.306Z,41.90
2018-11-01T16:04:20.776Z,43.83
2018-11-01T16:06:51.198Z,36.53
2018-11-01T16:09:21.590Z,41.77
2018-11-01T16:11:52.095Z,42.37
2018-11-01T16:14:22.632Z,41.23
2018-11-01T16:16:53.010Z,41.23
2018-11-01T16:19:23.675Z,41.13
2018-11-01T16:21:54.093Z,43.27
2018-11-01T16:24:24.491Z,39.97
2018-11-01T16:26:54.941Z,41.27
2018-11-01T16:29:25.309Z,42.73
2018-11-01T16:31:55.658Z,43.37
2018-11-01T16:34:26.189Z,40.63
2018-11-01T16:36:56.777Z,44.37
2018-11-01T16:39:27.128Z,43.17
2018-11-01T16:41:57.596Z,43.23
2018-11-01T16:44:27.912Z,45.97
2018-11-01T16:46:58.356Z,44.40
2018-11-01T16:49:28.651Z,46.27
2018-11-01T16:51:59.120Z,45.67
2018-11-01T16:54:29.718Z,42.93
2018-11-01T16:57:00.163Z,46.27
2018-11-01T16:59:30.605Z,44.60
2018-11-01T17:02:01.005Z,44.63
2018-11-01T17:04:31.791Z,46.37
2018-11-01T17:07:02.254Z,43.40
2018-11-01T17:09:32.828Z,45.63
2018-11-01T17:12:03.313Z,46.47
2018-11-01T17:14:33.960Z,44.63
2018-11-01T17:17:04.404Z,41.53
2018-11-01T17:19:34.755Z,41.63
2018-11-01T17:22:06.419Z,42.00
2018-11-01T17:24:37.015Z,39.63
2018-11-01T17:27:07.974Z,43.37
2018-11-01T17:29:38.444Z,41.37
2018-11-01T17:32:08.816Z,41.57
2018-11-01T17:34:40.247Z,43.07
2018-11-01T17:37:11.002Z,41.27
2018-11-01T17:39:41.410Z,45.57
2018-11-01T17:42:12.129Z,41.03
2018-11-01T17:44:42.870Z,43.10
2018-11-01T17:47:13.210Z,42.80
2018-11-01T17:49:43.637Z,43.17
2018-11-01T17:52:14.013Z,40.00
2018-11-01T17:54:44.662Z,44.50
2018-11-01T17:57:15.087Z,43.37
2018-11-01T17:59:45.600Z,42.37
2018-11-01T18:02:16.285Z,44.33
2018-11-01T18:04:46.824Z,44.00
2018-11-01T18:07:17.373Z,42.50
2018-11-01T18:09:47.928Z,41.60
2018-11-01T18:12:18.475Z,42.40
2018-11-01T18:14:49.286Z,41.10
2018-11-01T18:17:19.708Z,43.70
2018-11-01T18:19:50.179Z,40.37
2018-11-01T18:22:20.634Z,42.63
2018-11-01T18:24:51.091Z,41.07
2018-11-01T18:27:21.787Z,39.23
2018-11-01T18:29:52.364Z,39.40
2018-11-01T18:32:22.889Z,39.20
2018-11-01T18:34:53.819Z,39.50
2018-11-01T18:37:24.410Z,41.07
2018-11-01T18:39:54.867Z,40.10
2018-11-01T18:42:25.365Z,38.37
2018-11-01T18:44:55.853Z,39.47
2018-11-01T18:47:26.504Z,39.90
2018-11-01T18:49:56.998Z,42.83
2018-11-01T18:52:27.542Z,37.60
2018-11-01T18:54:58.242Z,37.83
2018-11-01T19:00:14.935Z,37.47
2018-11-01T19:02:45.571Z,36.70
2018-11-01T19:05:16.510Z,36.80
2018-11-01T19:10:27.229Z,33.23
2018-11-01T19:12:57.739Z,35.40
2018-11-01T19:15:28.477Z,35.93
2018-11-01T19:17:58.986Z,35.30
2018-11-01T19:20:29.499Z,34.07
2018-11-01T19:23:00.018Z,33.70
2018-11-01T19:25:31.645Z,33.50
2018-11-01T19:28:02.476Z,32.57
2018-11-01T19:30:32.920Z,33.10
2018-11-01T19:33:03.483Z,31.30
2018-11-01T19:35:34.044Z,30.43
2018-11-01T19:38:04.567Z,31.47
2018-11-01T19:40:35.244Z,30.93
2018-11-01T19:43:05.898Z,30.53
2018-11-01T19:45:36.471Z,29.93
2018-11-01T19:48:07.046Z,30.13
2018-11-01T19:50:38.458Z,29.43
2018-11-01T19:53:11.962Z,28.77
2018-11-01T19:55:42.490Z,31.47
2018-11-01T19:58:13.066Z,30.50
2018-11-01T20:00:43.560Z,28.80
2018-11-01T20:03:14.115Z,31.87
2018-11-01T20:05:44.684Z,28.17
2018-11-01T20:08:15.630Z,28.03
2018-11-01T20:10:46.221Z,27.97
2018-11-01T20:13:16.829Z,28.80
2018-11-01T20:15:47.412Z,29.97
2018-11-01T20:18:17.967Z,27.87
2018-11-01T20:20:48.525Z,29.80
2018-11-01T20:23:19.021Z,31.10
2018-11-01T20:25:49.717Z,29.00
2018-11-01T20:28:20.436Z,28.87
2018-11-01T20:30:51.010Z,29.53
2018-11-01T20:33:21.643Z,28.23
2018-11-01T20:35:52.034Z,26.57
2018-11-01T20:38:22.533Z,30.17
2018-11-01T20:40:52.953Z,28.67
2018-11-01T20:43:23.449Z,27.23
2018-11-01T20:45:53.876Z,26.87
2018-11-01T20:48:24.576Z,27.23
2018-11-01T20:50:55.155Z,28.20
2018-11-01T20:53:25.566Z,27.00
2018-11-01T20:55:56.158Z,24.17
2018-11-01T20:58:26.650Z,24.87
2018-11-01T21:00:57.323Z,25.70
2018-11-01T21:03:27.765Z,24.40
2018-11-01T21:05:58.198Z,24.43
2018-11-01T21:08:28.953Z,24.00
2018-11-01T21:10:59.480Z,24.50
2018-11-01T21:13:30.004Z,25.40
2018-11-01T21:16:00.455Z,26.20
2018-11-01T21:18:31.147Z,25.97
2018-11-01T21:21:01.629Z,25.77
2018-11-01T21:23:32.195Z,26.20
2018-11-01T21:26:02.764Z,25.73
2018-11-01T21:28:33.319Z,26.30
2018-11-01T21:31:03.751Z,22.90
2018-11-01T21:33:34.292Z,22.90
2018-11-01T21:36:05.389Z,24.03
2018-11-01T21:38:36.163Z,22.30
2018-11-01T21:41:07.139Z,23.40
2018-11-01T21:43:37.655Z,22.33
2018-11-01T21:46:08.145Z,22.77
2018-11-01T21:48:38.770Z,21.40
2018-11-01T21:51:09.379Z,20.17
2018-11-01T21:53:39.961Z,20.17
2018-11-01T21:56:10.724Z,19.63
2018-11-01T21:58:41.240Z,21.13
2018-11-01T22:01:11.669Z,21.73
2018-11-01T22:03:42.293Z,23.00
2018-11-01T22:06:12.801Z,22.37
2018-11-01T22:08:43.666Z,25.33
2018-11-01T22:11:14.238Z,27.10
2018-11-01T22:13:45.053Z,25.80
2018-11-01T22:16:15.589Z,23.23
2018-11-01T22:18:46.452Z,23.93
2018-11-01T22:21:16.993Z,23.30
2018-11-01T22:23:47.514Z,23.60
2018-11-01T22:26:17.945Z,19.17
2018-11-01T22:28:48.728Z,21.00
2018-11-01T22:31:19.152Z,22.70
2018-11-01T22:36:30.595Z,21.40
2018-11-01T22:39:01.079Z,20.87
2018-11-01T22:41:31.789Z,21.03
2018-11-01T22:44:02.282Z,21.87
2018-11-01T22:46:32.800Z,19.93
2018-11-01T22:49:03.289Z,19.27
2018-11-01T22:51:33.841Z,19.53
2018-11-01T22:54:04.493Z,19.70
2018-11-01T22:56:35.006Z,18.43
2018-11-01T22:59:05.604Z,20.20
2018-11-01T23:01:36.177Z,17.97
2018-11-01T23:04:07.316Z,20.33
2018-11-01T23:06:37.861Z,16.37
2018-11-01T23:09:10.261Z,18.13
2018-11-01T23:11:41.231Z,19.33
2018-11-01T23:14:11.725Z,18.77
2018-11-01T23:16:42.271Z,19.80
2018-11-01T23:19:13.009Z,19.23
2018-11-01T23:21:43.491Z,21.63
2018-11-01T23:24:13.963Z,19.07
2018-11-01T23:26:44.360Z,19.10
2018-11-01T23:29:14.857Z,18.67
2018-11-01T23:31:45.326Z,18.53
2018-11-01T23:34:16.029Z,18.57
2018-11-01T23:36:51.281Z,19.13
2018-11-01T23:39:26.662Z,16.57
2018-11-01T23:42:02.223Z,17.43
2018-11-01T23:44:37.633Z,18.70
2018-11-01T23:47:13.142Z,18.37
2018-11-01T23:49:48.768Z,17.70
2018-11-01T23:52:21.314Z,17.13
2018-11-01T23:54:52.634Z,15.97
2018-11-01T23:57:23.143Z,15.93
2018-11-01T23:59:53.796Z,15.47
